Time;durP1;ratioP1;P1;durP2;ratioP2;P2;SDS_P1;SDS_P2;PMS_P1;PMS_P2;Temp;Humidity;BMP_temperature;BMP_pressure;BME280_temperature;BME280_humidity;BME280_pressure;Samples;Min_cycle;Max_cycle;Signal;HPM_P1;HPM_P2
2023/01/24 00:01:12;;;;;;;22.92;19.17;;;3.60;99.90;;;;;;4974893;28;20185;-53
2023/01/24 00:03:38;;;;;;;21.58;18.88;;;3.60;99.90;;;;;;4976144;28;20614;-53
2023/01/24 00:06:04;;;;;;;22.00;18.38;;;3.60;99.90;;;;;;4976650;28;20685;-50
2023/01/24 00:08:30;;;;;;;21.23;17.98;;;3.60;99.90;;;;;;4976278;28;20265;-53
2023/01/24 00:11:04;;;;;;;22.10;17.87;;;3.60;99.90;;;;;;4976188;28;20666;-52
2023/01/24 00:13:31;;;;;;;22.85;17.67;;;3.60;99.90;;;;;;4976210;28;20176;-51
2023/01/24 00:16:14;;;;;;;20.77;17.88;;;3.60;99.90;;;;;;4975969;28;20220;-53
2023/01/24 00:18:40;;;;;;;23.67;18.90;;;3.60;99.90;;;;;;4976361;28;20551;-52
2023/01/24 00:21:11;;;;;;;21.58;18.13;;;3.50;99.90;;;;;;4975837;28;20200;-51
2023/01/24 00:23:41;;;;;;;22.73;18.65;;;3.60;99.90;;;;;;4975866;28;20197;-54
2023/01/24 00:26:07;;;;;;;23.20;18.33;;;3.70;99.90;;;;;;4975912;28;20231;-53
2023/01/24 00:28:34;;;;;;;23.60;19.95;;;3.70;99.90;;;;;;4975728;28;20181;-52
2023/01/24 00:30:59;;;;;;;22.00;19.15;;;3.70;99.90;;;;;;4975650;28;20185;-52
2023/01/24 00:33:25;;;;;;;23.83;19.52;;;3.60;99.90;;;;;;4975663;28;20189;-53
2023/01/24 00:35:51;;;;;;;23.02;18.42;;;3.60;99.90;;;;;;4975736;28;20295;-53
2023/01/24 00:38:17;;;;;;;22.98;19.83;;;3.70;99.90;;;;;;4975632;28;20181;-52
2023/01/24 00:40:43;;;;;;;22.55;18.88;;;3.50;99.90;;;;;;4975515;28;20549;-51
2023/01/24 00:43:09;;;;;;;24.33;18.00;;;3.50;99.90;;;;;;4975551;28;20256;-50
2023/01/24 00:45:36;;;;;;;23.73;18.38;;;3.50;99.90;;;;;;4975559;28;20269;-51
2023/01/24 00:48:03;;;;;;;23.23;19.55;;;3.40;99.90;;;;;;4975618;28;20525;-54
2023/01/24 00:50:29;;;;;;;22.02;18.65;;;3.50;99.90;;;;;;4975466;28;20545;-51
2023/01/24 00:52:55;;;;;;;24.85;19.35;;;3.60;99.90;;;;;;4975537;28;20185;-50
2023/01/24 00:55:21;;;;;;;24.42;20.05;;;3.50;99.90;;;;;;4975289;28;20206;-52
2023/01/24 00:57:46;;;;;;;24.70;20.20;;;3.50;99.90;;;;;;4975169;28;20198;-52
2023/01/24 01:00:12;;;;;;;25.17;20.40;;;3.50;99.90;;;;;;4975363;28;20181;-54
2023/01/24 01:02:38;;;;;;;28.40;20.27;;;3.50;99.90;;;;;;4975242;28;20217;-52
2023/01/24 01:05:05;;;;;;;22.63;18.70;;;3.50;99.90;;;;;;4975255;28;20215;-50
2023/01/24 01:07:31;;;;;;;25.77;20.00;;;3.50;99.90;;;;;;4975102;28;20170;-53
2023/01/24 01:09:56;;;;;;;24.85;19.83;;;3.60;99.90;;;;;;4975133;28;20205;-53
2023/01/24 01:12:22;;;;;;;25.75;20.00;;;3.40;99.90;;;;;;4974373;28;20212;-52
2023/01/24 01:14:48;;;;;;;24.88;22.67;;;3.50;99.90;;;;;;4974861;28;20202;-53
2023/01/24 01:17:14;;;;;;;23.98;20.63;;;3.50;99.90;;;;;;4975064;28;20184;-52
2023/01/24 01:19:39;;;;;;;26.35;21.40;;;3.50;99.90;;;;;;4975094;28;20181;-52
2023/01/24 01:22:05;;;;;;;26.20;20.38;;;3.40;99.90;;;;;;4974944;28;20189;-53
2023/01/24 01:24:31;;;;;;;26.70;22.00;;;3.50;99.90;;;;;;4975008;28;20212;-53
2023/01/24 01:26:56;;;;;;;24.75;20.45;;;3.40;99.90;;;;;;4974785;28;20602;-51
2023/01/24 01:29:22;;;;;;;26.98;20.15;;;3.40;99.90;;;;;;4974927;28;20184;-51
2023/01/24 01:31:48;;;;;;;25.03;20.93;;;3.40;99.90;;;;;;4974858;28;20179;-51
2023/01/24 01:34:13;;;;;;;25.85;20.58;;;3.40;99.90;;;;;;4974743;28;20300;-53
2023/01/24 01:36:39;;;;;;;25.27;20.25;;;3.40;99.90;;;;;;4974766;28;20188;-52
2023/01/24 01:39:05;;;;;;;26.40;21.57;;;3.50;99.90;;;;;;4974859;28;20191;-50
2023/01/24 01:41:30;;;;;;;26.73;21.40;;;3.50;99.90;;;;;;4974569;28;20177;-50
2023/01/24 01:46:49;;;;;;;24.80;20.08;;;3.60;99.90;;;;;;4974826;28;20328;-52
2023/01/24 01:49:23;;;;;;;24.37;20.13;;;3.50;99.90;;;;;;4974637;28;20188;-49
2023/01/24 01:51:52;;;;;;;25.20;20.27;;;3.50;99.90;;;;;;4974551;28;20171;-54
2023/01/24 01:54:30;;;;;;;26.17;20.57;;;3.30;99.90;;;;;;4974317;28;20209;-50
2023/01/24 01:57:02;;;;;;;28.53;21.27;;;3.40;99.90;;;;;;4974603;28;20649;-51
2023/01/24 01:59:43;;;;;;;26.77;21.57;;;3.60;99.90;;;;;;4974618;28;20173;-50
2023/01/24 02:02:09;;;;;;;28.47;22.00;;;3.50;99.90;;;;;;4974511;28;20665;-53
2023/01/24 02:04:38;;;;;;;27.67;22.70;;;3.60;99.90;;;;;;4974342;28;20185;-51
2023/01/24 02:07:14;;;;;;;27.13;21.08;;;3.60;99.90;;;;;;4974628;28;20177;-50
2023/01/24 02:09:43;;;;;;;28.05;22.15;;;3.60;99.90;;;;;;4974374;28;20209;-50
2023/01/24 02:12:17;;;;;;;27.85;23.08;;;3.60;99.90;;;;;;4974423;28;20180;-49
2023/01/24 02:17:31;;;;;;;27.60;23.20;;;3.60;99.90;;;;;;4974579;28;20736;-52
2023/01/24 02:20:06;;;;;;;27.45;22.70;;;3.60;99.90;;;;;;4974213;28;20705;-53
2023/01/24 02:22:54;;;;;;;25.98;20.80;;;3.60;99.90;;;;;;4974361;28;20177;-52
2023/01/24 02:25:40;;;;;;;30.90;22.98;;;3.40;99.90;;;;;;4977909;28;20277;-53
2023/01/24 02:28:08;;;;;;;31.80;23.90;;;3.30;99.90;;;;;;4978179;28;20531;-49
2023/01/24 02:30:36;;;;;;;27.60;22.63;;;3.20;99.90;;;;;;4977938;28;20197;-52
2023/01/24 02:33:22;;;;;;;28.77;22.87;;;3.20;99.90;;;;;;4978076;28;20181;-52
2023/01/24 02:35:48;;;;;;;32.67;25.73;;;3.30;99.90;;;;;;4977371;28;20642;-52
2023/01/24 02:38:19;;;;;;;30.95;23.80;;;3.40;99.90;;;;;;4978052;28;20968;-52
2023/01/24 02:40:47;;;;;;;32.45;25.15;;;3.50;99.90;;;;;;4977961;28;20269;-53
2023/01/24 02:43:15;;;;;;;32.03;25.30;;;3.60;99.90;;;;;;4977780;28;20167;-53
2023/01/24 02:45:40;;;;;;;31.47;25.83;;;3.50;99.90;;;;;;4977797;28;20187;-53
2023/01/24 02:48:06;;;;;;;32.30;24.20;;;3.50;99.90;;;;;;4977663;28;20176;-53
2023/01/24 02:53:30;;;;;;;31.63;25.70;;;3.40;99.90;;;;;;4956995;28;20189;-53
2023/01/24 02:58:48;;;;;;;31.20;25.03;;;3.40;99.90;;;;;;4977709;28;20240;-52
2023/01/24 03:01:15;;;;;;;31.30;25.27;;;3.30;99.90;;;;;;4977642;28;20669;-53
2023/01/24 03:03:45;;;;;;;33.30;26.13;;;3.30;99.90;;;;;;4977473;28;20177;-53
2023/01/24 03:06:12;;;;;;;30.98;25.33;;;3.30;99.90;;;;;;4977712;28;20178;-51
2023/01/24 03:08:39;;;;;;;33.47;24.80;;;3.50;99.90;;;;;;4977349;28;20174;-50
2023/01/24 03:11:05;;;;;;;35.47;26.93;;;3.40;99.90;;;;;;4977208;28;20240;-49
2023/01/24 03:35:27;;;;;;;31.83;25.10;;;3.30;99.90;;;;;;4976286;28;20267;-51
2023/01/24 03:40:37;;;;;;;30.63;25.00;;;3.50;99.90;;;;;;4976691;28;20728;-55
2023/01/24 03:43:03;;;;;;;28.30;23.93;;;3.60;99.90;;;;;;4976874;28;20203;-52
2023/01/24 03:45:32;;;;;;;29.07;24.13;;;3.60;99.90;;;;;;4976819;28;20643;-52
2023/01/24 03:48:00;;;;;;;28.50;23.60;;;3.60;99.90;;;;;;4976482;28;20174;-53
2023/01/24 03:53:16;;;;;;;27.77;23.30;;;3.60;99.90;;;;;;4976496;28;20208;-53
2023/01/24 03:55:42;;;;;;;31.77;23.30;;;3.60;99.90;;;;;;4976535;28;20615;-52
2023/01/24 03:58:09;;;;;;;28.90;23.53;;;3.60;99.90;;;;;;4976578;28;20177;-50
2023/01/24 04:00:35;;;;;;;28.23;24.07;;;3.60;99.90;;;;;;4976541;28;20586;-51
2023/01/24 04:03:01;;;;;;;30.53;24.87;;;3.40;99.90;;;;;;4976345;28;20178;-55
2023/01/24 04:05:27;;;;;;;27.37;22.30;;;3.30;99.90;;;;;;4976471;28;20523;-53
2023/01/24 04:07:56;;;;;;;27.13;22.33;;;3.40;99.90;;;;;;4976097;28;20185;-53
2023/01/24 04:10:22;;;;;;;27.57;22.23;;;3.30;99.90;;;;;;4976308;28;20547;-53
2023/01/24 04:12:48;;;;;;;26.25;21.25;;;3.30;99.90;;;;;;4976224;28;20171;-52
2023/01/24 04:15:20;;;;;;;25.13;21.27;;;3.50;99.90;;;;;;4976076;28;20609;-53
2023/01/24 04:17:45;;;;;;;24.65;20.80;;;3.40;99.90;;;;;;4976064;28;20240;-53
2023/01/24 04:20:12;;;;;;;27.63;20.70;;;3.40;99.90;;;;;;4975922;28;20186;-52
2023/01/24 04:22:38;;;;;;;25.07;19.13;;;3.20;99.90;;;;;;4976432;28;20177;-53
2023/01/24 04:25:04;;;;;;;23.40;18.07;;;3.20;99.90;;;;;;4976025;28;20565;-53
2023/01/24 04:27:29;;;;;;;25.70;23.40;;;3.20;99.90;;;;;;4975939;28;20181;-54
2023/01/24 04:29:55;;;;;;;24.60;20.08;;;3.20;99.90;;;;;;4975774;28;20606;-52
2023/01/24 04:32:21;;;;;;;24.60;20.30;;;3.10;99.90;;;;;;4975785;28;20375;-51
2023/01/24 04:34:46;;;;;;;24.80;20.27;;;3.20;99.90;;;;;;4975568;28;20209;-53
2023/01/24 04:37:12;;;;;;;27.70;21.93;;;3.20;99.90;;;;;;4975849;28;20193;-53
2023/01/24 04:39:38;;;;;;;27.60;21.42;;;3.10;99.90;;;;;;4975736;28;20182;-53
2023/01/24 04:42:05;;;;;;;28.33;22.20;;;3.20;99.90;;;;;;4975699;28;20641;-52
2023/01/24 04:44:31;;;;;;;27.52;21.30;;;3.30;99.90;;;;;;4975532;28;20559;-53
2023/01/24 04:46:57;;;;;;;28.30;21.67;;;3.30;99.90;;;;;;4974760;28;20220;-50
2023/01/24 04:49:22;;;;;;;27.70;22.10;;;3.40;99.90;;;;;;4975222;28;20185;-52
2023/01/24 04:51:50;;;;;;;26.20;21.60;;;3.40;99.90;;;;;;4975623;28;20197;-52
2023/01/24 04:54:16;;;;;;;27.37;21.60;;;3.40;99.90;;;;;;4975515;28;20276;-50
2023/01/24 04:56:42;;;;;;;28.05;21.83;;;3.50;99.90;;;;;;4975286;28;20194;-54
2023/01/24 04:59:10;;;;;;;28.60;22.63;;;3.40;99.90;;;;;;4975276;28;20259;-52
2023/01/24 05:01:36;;;;;;;26.17;21.30;;;3.40;99.90;;;;;;4975260;28;20244;-50
2023/01/24 05:04:01;;;;;;;26.30;22.13;;;3.50;99.90;;;;;;4975041;28;20189;-51
2023/01/24 05:06:28;;;;;;;27.23;20.33;;;3.40;99.90;;;;;;4975290;28;20192;-52
2023/01/24 05:08:55;;;;;;;25.97;21.93;;;3.40;99.90;;;;;;4975094;28;20263;-53
2023/01/24 05:11:21;;;;;;;25.90;21.83;;;3.30;99.90;;;;;;4975165;28;20527;-50
2023/01/24 05:13:47;;;;;;;25.77;21.17;;;3.20;99.90;;;;;;4975011;28;20188;-50
2023/01/24 05:16:13;;;;;;;26.67;21.93;;;3.10;99.90;;;;;;4973718;28;20190;-55
2023/01/24 05:18:38;;;;;;;26.60;22.50;;;3.10;99.90;;;;;;4974881;28;20635;-51
2023/01/24 05:21:09;;;;;;;24.83;20.30;;;3.20;99.90;;;;;;4975361;28;20181;-53
2023/01/24 05:23:35;;;;;;;25.83;20.47;;;3.20;99.90;;;;;;4975009;28;20192;-51
2023/01/24 05:26:01;;;;;;;25.13;21.50;;;3.10;99.90;;;;;;4974834;28;20190;-53
2023/01/24 05:28:27;;;;;;;27.13;20.70;;;3.10;99.90;;;;;;4974803;28;20195;-53
2023/01/24 05:30:57;;;;;;;29.87;22.30;;;3.20;99.90;;;;;;4974721;28;20190;-52
2023/01/24 05:33:23;;;;;;;29.07;23.97;;;3.20;99.90;;;;;;4974631;28;20646;-51
2023/01/24 05:35:48;;;;;;;30.70;24.57;;;3.20;99.90;;;;;;4974800;28;20247;-51
2023/01/24 05:38:14;;;;;;;30.50;24.37;;;3.40;99.90;;;;;;4974835;28;20592;-50
2023/01/24 05:40:39;;;;;;;28.53;22.73;;;3.30;99.90;;;;;;4974577;28;20184;-53
2023/01/24 05:43:06;;;;;;;27.63;21.83;;;3.30;99.90;;;;;;4974758;28;20181;-52
2023/01/24 05:45:31;;;;;;;28.58;22.58;;;3.40;99.90;;;;;;4974289;28;20563;-50
2023/01/24 05:47:57;;;;;;;25.52;22.00;;;3.40;99.90;;;;;;4974370;28;20185;-50
2023/01/24 05:50:22;;;;;;;27.40;21.47;;;3.30;99.90;;;;;;4973454;28;20187;-53
2023/01/24 05:52:48;;;;;;;26.63;23.13;;;3.20;99.90;;;;;;4974437;28;20182;-54
2023/01/24 05:55:14;;;;;;;28.70;23.73;;;3.10;99.90;;;;;;4974396;28;20206;-54
2023/01/24 05:57:39;;;;;;;26.30;22.27;;;3.20;99.90;;;;;;4973172;28;20189;-53
2023/01/24 06:00:06;;;;;;;29.67;24.47;;;3.30;99.90;;;;;;4980178;28;20184;-54
2023/01/24 06:02:31;;;;;;;27.80;23.00;;;3.30;99.90;;;;;;4980822;28;20650;-54
2023/01/24 06:04:57;;;;;;;30.50;24.80;;;3.20;99.90;;;;;;4981026;28;20192;-53
2023/01/24 06:07:23;;;;;;;28.90;24.90;;;3.40;99.90;;;;;;4981243;28;20260;-53
2023/01/24 06:09:48;;;;;;;28.47;23.70;;;3.30;99.90;;;;;;4981169;28;20264;-52
2023/01/24 06:12:14;;;;;;;28.50;23.03;;;3.40;99.90;;;;;;4980883;28;20177;-53
2023/01/24 06:14:39;;;;;;;27.67;23.70;;;3.40;99.90;;;;;;4980747;28;20328;-51
2023/01/24 06:17:05;;;;;;;27.37;22.57;;;3.30;99.90;;;;;;4980676;28;20181;-53
2023/01/24 06:19:31;;;;;;;28.80;22.00;;;3.20;99.90;;;;;;4980708;28;20261;-54
2023/01/24 06:22:22;;;;;;;29.70;24.63;;;3.20;99.90;;;;;;4980884;28;20638;-54
2023/01/24 06:24:48;;;;;;;29.67;23.37;;;3.20;99.90;;;;;;4980561;28;20285;-53
2023/01/24 06:27:14;;;;;;;32.13;24.92;;;3.20;99.90;;;;;;4980738;28;20217;-53
2023/01/24 06:29:39;;;;;;;33.43;24.90;;;3.10;99.90;;;;;;4980536;28;20177;-52
2023/01/24 06:32:39;;;;;;;34.23;27.87;;;3.00;99.90;;;;;;4980800;28;20182;-53
2023/01/24 06:35:28;;;;;;;36.00;26.73;;;3.10;99.90;;;;;;4980546;28;20201;-53
2023/01/24 06:37:53;;;;;;;32.90;28.37;;;3.10;99.90;;;;;;4980411;28;20265;-53
2023/01/24 06:40:22;;;;;;;30.37;24.67;;;3.10;99.90;;;;;;4980974;28;20276;-54
2023/01/24 06:42:49;;;;;;;33.03;26.27;;;2.90;99.90;;;;;;4980726;28;20187;-52
2023/01/24 06:45:15;;;;;;;30.70;24.63;;;3.00;99.90;;;;;;4980534;28;20195;-54
2023/01/24 06:47:41;;;;;;;30.57;23.23;;;3.10;99.90;;;;;;4980631;28;20215;-53
2023/01/24 06:50:10;;;;;;;32.57;23.83;;;3.10;99.90;;;;;;4980478;28;20212;-53
2023/01/24 06:52:36;;;;;;;30.20;27.50;;;3.20;99.90;;;;;;4980683;28;20527;-54
2023/01/24 06:55:02;;;;;;;30.10;23.47;;;3.10;99.90;;;;;;4980263;28;20214;-53
2023/01/24 06:57:27;;;;;;;32.10;24.50;;;3.00;99.90;;;;;;4980298;28;20189;-53
2023/01/24 06:59:53;;;;;;;30.20;23.80;;;3.10;99.90;;;;;;4980381;28;20539;-52
2023/01/24 07:02:19;;;;;;;30.87;23.73;;;3.10;99.90;;;;;;4980349;28;20252;-53
2023/01/24 07:04:44;;;;;;;29.55;24.13;;;3.10;99.90;;;;;;4980359;28;20190;-51
2023/01/24 07:07:10;;;;;;;33.67;25.50;;;3.10;99.90;;;;;;4980202;28;20177;-54
2023/01/24 07:09:36;;;;;;;33.60;27.07;;;3.00;99.90;;;;;;4979686;28;20213;-54
2023/01/24 07:12:01;;;;;;;38.07;28.50;;;3.10;99.90;;;;;;4976618;28;20193;-54
2023/01/24 07:14:27;;;;;;;34.37;26.50;;;3.10;99.90;;;;;;4977292;28;20288;-54
2023/01/24 07:16:55;;;;;;;42.83;35.23;;;3.20;99.90;;;;;;4977134;28;20203;-51
2023/01/24 07:19:23;;;;;;;32.00;24.07;;;3.10;99.90;;;;;;4977032;28;20188;-53
2023/01/24 07:21:49;;;;;;;32.10;24.42;;;3.00;99.90;;;;;;4977235;28;20178;-53
2023/01/24 07:24:19;;;;;;;37.10;26.57;;;3.00;99.90;;;;;;4977269;28;20201;-54
2023/01/24 07:26:45;;;;;;;35.30;26.70;;;2.90;99.90;;;;;;4977148;28;20176;-52
2023/01/24 07:29:11;;;;;;;36.07;26.17;;;3.00;99.90;;;;;;4976970;28;20188;-53
2023/01/24 07:31:38;;;;;;;34.77;26.77;;;2.90;99.90;;;;;;4975698;28;20273;-55
2023/01/24 07:34:04;;;;;;;32.50;24.73;;;2.90;99.90;;;;;;4976911;28;20209;-54
2023/01/24 07:36:29;;;;;;;30.03;24.53;;;3.00;99.90;;;;;;4976896;28;20229;-53
2023/01/24 07:38:56;;;;;;;31.53;23.43;;;2.90;99.90;;;;;;4976844;28;20184;-50
2023/01/24 07:41:22;;;;;;;30.63;24.17;;;3.00;99.90;;;;;;4976595;28;20236;-52
2023/01/24 07:43:48;;;;;;;28.97;21.57;;;3.00;99.90;;;;;;4976680;28;20599;-53
2023/01/24 07:46:14;;;;;;;33.92;25.25;;;3.00;99.90;;;;;;4975306;28;20262;-53
2023/01/24 07:48:39;;;;;;;31.03;24.37;;;3.00;99.90;;;;;;4976582;28;20216;-55
2023/01/24 07:51:05;;;;;;;35.87;27.60;;;2.90;99.90;;;;;;4976424;28;20253;-50
2023/01/24 07:53:31;;;;;;;38.53;29.10;;;2.90;99.90;;;;;;4976664;28;20181;-52
2023/01/24 07:56:00;;;;;;;34.13;26.03;;;2.80;99.90;;;;;;4976411;28;20604;-54
2023/01/24 07:58:26;;;;;;;37.33;28.20;;;2.90;99.90;;;;;;4976584;28;20193;-53
2023/01/24 08:00:52;;;;;;;37.20;27.30;;;2.80;99.90;;;;;;4976414;28;20569;-51
2023/01/24 08:03:17;;;;;;;38.33;27.93;;;2.90;99.90;;;;;;4976437;28;20235;-51
2023/01/24 08:05:43;;;;;;;36.70;28.00;;;3.00;99.90;;;;;;4976503;28;20194;-51
2023/01/24 08:08:09;;;;;;;33.77;26.33;;;3.10;99.90;;;;;;4976145;28;20171;-50
2023/01/24 08:10:35;;;;;;;33.47;25.77;;;3.10;99.90;;;;;;4976133;28;20649;-50
2023/01/24 08:13:01;;;;;;;33.13;25.40;;;3.10;99.90;;;;;;4976309;28;20209;-53
2023/01/24 08:15:26;;;;;;;30.87;24.13;;;3.20;99.90;;;;;;4976129;28;20198;-53
2023/01/24 08:17:52;;;;;;;33.87;26.03;;;3.10;99.90;;;;;;4976011;28;20185;-51
2023/01/24 08:20:18;;;;;;;33.30;25.83;;;3.10;99.90;;;;;;4975927;28;20254;-52
2023/01/24 08:22:43;;;;;;;30.17;24.93;;;3.10;99.90;;;;;;4976167;28;20634;-52
2023/01/24 08:25:11;;;;;;;33.47;25.98;;;3.10;99.90;;;;;;4976282;28;20289;-52
2023/01/24 08:27:40;;;;;;;29.48;25.65;;;3.30;99.90;;;;;;4975947;28;20181;-53
2023/01/24 08:30:09;;;;;;;27.13;21.00;;;3.30;99.90;;;;;;4975793;28;20638;-52
2023/01/24 08:32:35;;;;;;;28.27;22.20;;;3.00;99.90;;;;;;4975713;28;20185;-50
2023/01/24 08:35:00;;;;;;;30.87;23.17;;;3.00;99.90;;;;;;4975815;28;20213;-54
2023/01/24 08:37:26;;;;;;;30.67;27.87;;;2.90;99.90;;;;;;4975895;28;20223;-52
2023/01/24 08:39:52;;;;;;;29.70;22.60;;;3.10;99.90;;;;;;4975731;28;20181;-54
2023/01/24 08:42:17;;;;;;;28.40;21.83;;;3.20;99.90;;;;;;4975888;28;20270;-53
2023/01/24 08:44:43;;;;;;;31.03;23.50;;;3.10;99.90;;;;;;4975625;28;20186;-52
2023/01/24 08:47:08;;;;;;;33.27;26.47;;;3.00;99.90;;;;;;4975609;28;20566;-54
2023/01/24 08:49:34;;;;;;;32.37;24.10;;;3.10;99.90;;;;;;4975807;28;20577;-52
2023/01/24 08:52:00;;;;;;;30.90;24.57;;;3.30;99.90;;;;;;4975525;28;20189;-52
2023/01/24 08:54:32;;;;;;;29.87;24.10;;;3.30;99.90;;;;;;4975428;28;20209;-53
2023/01/24 08:56:57;;;;;;;30.30;22.67;;;3.30;99.90;;;;;;4975449;28;20185;-54
2023/01/24 08:59:23;;;;;;;31.33;24.08;;;3.30;99.90;;;;;;4975280;28;20279;-51
2023/01/24 09:01:49;;;;;;;29.48;25.33;;;3.30;99.90;;;;;;4975105;28;20182;-54
2023/01/24 09:04:14;;;;;;;31.67;25.48;;;3.50;99.90;;;;;;4975110;28;20296;-53
2023/01/24 09:06:40;;;;;;;35.22;27.75;;;3.50;99.90;;;;;;4975351;28;20181;-54
2023/01/24 09:09:06;;;;;;;30.30;25.10;;;3.40;99.90;;;;;;4975201;28;20600;-53
2023/01/24 09:11:32;;;;;;;30.38;23.52;;;3.40;99.90;;;;;;4974970;28;20182;-51
2023/01/24 09:13:57;;;;;;;28.90;22.95;;;3.30;99.90;;;;;;4975018;28;20209;-52
2023/01/24 09:16:24;;;;;;;28.23;22.53;;;3.40;99.90;;;;;;4974921;28;20662;-51
2023/01/24 09:18:51;;;;;;;30.00;23.43;;;3.30;99.90;;;;;;4975363;28;20181;-52
2023/01/24 09:21:17;;;;;;;28.43;23.37;;;3.20;99.90;;;;;;4975019;28;20208;-50
2023/01/24 09:23:43;;;;;;;28.87;22.30;;;3.30;99.90;;;;;;4975028;28;20225;-54
2023/01/24 09:26:09;;;;;;;31.85;22.83;;;3.30;99.90;;;;;;4975183;28;20185;-52
2023/01/24 09:28:35;;;;;;;29.95;23.48;;;3.40;99.90;;;;;;4974860;28;20560;-50
2023/01/24 09:31:01;;;;;;;28.10;22.45;;;3.30;99.90;;;;;;4974618;28;20204;-55
2023/01/24 09:33:28;;;;;;;26.37;21.07;;;3.40;99.90;;;;;;4974531;28;20193;-52
2023/01/24 09:35:57;;;;;;;27.57;20.63;;;3.40;99.90;;;;;;4973414;28;20663;-52
2023/01/24 09:38:23;;;;;;;27.10;21.27;;;3.40;99.90;;;;;;4974645;28;20284;-53
2023/01/24 09:41:32;;;;;;;24.37;22.07;;;3.40;99.90;;;;;;4974657;28;20181;-55
2023/01/24 09:44:02;;;;;;;23.97;20.03;;;3.50;99.90;;;;;;4974203;28;20227;-50
2023/01/24 09:46:41;;;;;;;26.45;20.65;;;3.40;99.90;;;;;;4974637;28;20654;-53
2023/01/24 09:49:08;;;;;;;22.27;18.40;;;3.60;99.90;;;;;;4975023;28;20456;-52
2023/01/24 09:51:38;;;;;;;24.48;19.25;;;3.60;99.90;;;;;;4974554;28;20574;-54
2023/01/24 09:54:08;;;;;;;24.80;19.48;;;3.70;99.90;;;;;;4974463;28;20260;-52
2023/01/24 09:56:37;;;;;;;28.17;22.60;;;3.70;99.90;;;;;;4974721;28;20691;-54
2023/01/24 09:59:12;;;;;;;28.43;21.47;;;3.70;99.90;;;;;;4974687;28;20224;-53
2023/01/24 10:01:40;;;;;;;26.98;20.45;;;3.80;99.90;;;;;;4974687;28;20185;-53
2023/01/24 10:04:15;;;;;;;25.63;23.33;;;3.70;99.90;;;;;;4974503;28;20538;-53
2023/01/24 10:06:54;;;;;;;24.42;19.40;;;3.80;99.90;;;;;;4974528;28;20212;-53
2023/01/24 10:10:02;;;;;;;24.75;20.58;;;3.70;99.90;;;;;;4974566;28;20234;-53
2023/01/24 10:12:57;;;;;;;23.15;18.90;;;3.60;99.90;;;;;;4955388;28;20189;-53
2023/01/24 10:15:38;;;;;;;23.90;17.60;;;3.60;99.90;;;;;;4965614;28;20300;-53
2023/01/24 10:18:37;;;;;;;24.08;18.98;;;3.40;99.90;;;;;;4974409;28;20177;-55
2023/01/24 10:21:09;;;;;;;22.98;17.50;;;3.30;99.90;;;;;;4974294;28;20173;-54
2023/01/24 10:23:40;;;;;;;21.50;17.97;;;3.40;99.90;;;;;;4974398;28;20197;-54
2023/01/24 10:26:21;;;;;;;20.85;16.73;;;3.60;99.90;;;;;;4974399;28;20260;-54
2023/01/24 10:28:52;;;;;;;20.98;17.02;;;3.80;99.90;;;;;;4974141;28;20664;-53
2023/01/24 10:31:30;;;;;;;23.08;17.70;;;3.80;99.90;;;;;;4974205;28;20179;-52
2023/01/24 10:34:07;;;;;;;21.40;17.75;;;3.80;99.90;;;;;;4974341;28;20206;-53
2023/01/24 10:36:44;;;;;;;24.30;18.73;;;3.80;99.90;;;;;;4974554;28;20212;-53
2023/01/24 10:39:10;;;;;;;23.77;19.90;;;3.60;99.90;;;;;;4974242;28;20177;-50
2023/01/24 10:41:36;;;;;;;28.63;22.43;;;3.60;99.90;;;;;;4974130;28;20185;-52
2023/01/24 10:44:07;;;;;;;27.17;23.23;;;3.60;99.90;;;;;;4974102;28;20539;-54
2023/01/24 10:47:21;;;;;;;24.15;19.77;;;3.60;99.90;;;;;;4976524;28;20680;-53
2023/01/24 10:50:08;;;;;;;24.70;20.33;;;3.50;99.90;;;;;;4977999;28;20533;-54
2023/01/24 10:52:34;;;;;;;24.63;19.87;;;3.60;99.90;;;;;;4977699;28;20185;-55
2023/01/24 10:55:01;;;;;;;23.67;18.00;;;3.70;99.90;;;;;;4977628;28;20578;-55
2023/01/24 10:57:49;;;;;;;22.13;17.57;;;3.60;99.90;;;;;;4977569;28;20201;-53
2023/01/24 11:00:14;;;;;;;25.30;19.70;;;3.50;99.90;;;;;;4977619;28;20537;-53
2023/01/24 11:02:41;;;;;;;21.80;16.50;;;3.70;99.90;;;;;;4977405;28;20174;-54
2023/01/24 11:05:12;;;;;;;21.63;19.63;;;3.60;99.90;;;;;;4977359;28;20189;-54
2023/01/24 11:07:44;;;;;;;20.10;15.88;;;3.80;99.90;;;;;;4977402;28;20172;-54
2023/01/24 11:10:21;;;;;;;21.75;16.45;;;3.70;99.90;;;;;;4977668;28;20186;-55
2023/01/24 11:12:58;;;;;;;20.40;17.08;;;3.40;99.90;;;;;;4977296;28;20651;-54
2023/01/24 11:15:35;;;;;;;20.00;16.17;;;3.30;99.90;;;;;;4977097;28;20208;-55
2023/01/24 11:18:20;;;;;;;21.00;16.73;;;3.30;99.90;;;;;;4977382;28;20184;-56
2023/01/24 11:20:46;;;;;;;21.73;16.25;;;3.50;99.90;;;;;;4977322;28;20174;-52
2023/01/24 11:23:15;;;;;;;20.00;16.55;;;3.30;99.90;;;;;;4977141;28;20196;-53
2023/01/24 11:25:56;;;;;;;22.88;19.05;;;3.20;99.90;;;;;;4977073;28;20282;-53
2023/01/24 11:28:26;;;;;;;24.17;20.27;;;3.30;99.90;;;;;;4977244;28;20192;-53
2023/01/24 11:30:54;;;;;;;27.42;21.52;;;3.40;99.90;;;;;;4977122;28;20237;-51
2023/01/24 11:33:45;;;;;;;25.97;20.03;;;3.40;99.90;;;;;;4976957;28;20178;-54
2023/01/24 11:36:54;;;;;;;25.43;20.90;;;3.60;99.90;;;;;;4976786;28;20746;-53
2023/01/24 11:39:39;;;;;;;22.83;18.67;;;3.70;99.90;;;;;;4977019;28;20173;-53
2023/01/24 11:42:26;;;;;;;22.20;17.67;;;3.70;99.90;;;;;;4976800;28;20176;-52
2023/01/24 11:45:17;;;;;;;24.42;20.40;;;3.60;99.90;;;;;;4976909;28;20237;-51
2023/01/24 11:47:53;;;;;;;23.52;18.73;;;3.50;99.90;;;;;;4977049;28;20196;-52
2023/01/24 11:50:31;;;;;;;38.30;33.45;;;3.70;99.90;;;;;;4976599;28;20180;-53
2023/01/24 11:53:14;;;;;;;25.85;22.98;;;3.80;99.90;;;;;;4976523;28;20174;-55
2023/01/24 11:55:59;;;;;;;23.83;18.23;;;3.80;99.90;;;;;;4977026;28;20223;-54
2023/01/24 11:58:39;;;;;;;21.85;17.27;;;3.70;99.90;;;;;;4976564;28;20172;-54
2023/01/24 12:01:32;;;;;;;23.33;19.20;;;3.60;99.90;;;;;;4976435;28;20205;-54
2023/01/24 12:04:05;;;;;;;22.77;18.10;;;3.50;99.90;;;;;;4976708;28;20213;-52
2023/01/24 12:06:49;;;;;;;26.50;20.80;;;3.50;99.90;;;;;;4976655;28;20181;-53
2023/01/24 12:09:22;;;;;;;22.03;18.23;;;3.30;99.90;;;;;;4976302;28;20256;-54
2023/01/24 12:12:11;;;;;;;23.40;18.43;;;3.40;99.90;;;;;;4976119;28;20662;-55
2023/01/24 12:15:20;;;;;;;24.43;20.30;;;3.40;99.90;;;;;;4976502;28;20209;-52
2023/01/24 12:18:13;;;;;;;22.95;18.15;;;3.50;99.90;;;;;;4953767;28;20534;-53
2023/01/24 12:21:17;;;;;;;21.35;18.13;;;3.50;99.90;;;;;;4975603;28;20220;-51
2023/01/24 12:24:09;;;;;;;35.17;31.73;;;3.50;99.90;;;;;;4973924;28;20307;-55
2023/01/24 12:26:39;;;;;;;31.83;24.67;;;3.50;99.90;;;;;;4975606;28;20524;-51
2023/01/24 12:29:17;;;;;;;30.48;27.38;;;3.60;99.90;;;;;;4975732;28;20247;-54
2023/01/24 12:32:01;;;;;;;29.00;21.43;;;3.50;99.90;;;;;;4975758;28;20551;-53
2023/01/24 12:35:01;;;;;;;25.40;19.10;;;3.40;99.90;;;;;;4975660;28;20324;-52
2023/01/24 12:37:45;;;;;;;26.35;20.60;;;3.60;99.90;;;;;;4975939;28;20170;-52
2023/01/24 12:40:21;;;;;;;29.13;23.88;;;3.70;99.90;;;;;;4975864;28;20174;-54
2023/01/24 12:43:12;;;;;;;26.58;21.88;;;3.50;99.90;;;;;;4975561;28;20546;-54
2023/01/24 12:46:16;;;;;;;25.52;20.50;;;3.50;99.90;;;;;;4975928;28;20204;-56
2023/01/24 12:49:07;;;;;;;24.92;20.50;;;3.30;99.90;;;;;;4975766;28;20622;-55
2023/01/24 12:51:39;;;;;;;28.85;22.67;;;3.30;99.90;;;;;;4975647;28;20177;-53
2023/01/24 12:54:15;;;;;;;27.97;21.87;;;3.20;99.90;;;;;;4975450;28;20181;-53
2023/01/24 12:56:44;;;;;;;28.27;22.47;;;3.10;99.90;;;;;;4975593;28;20633;-51
2023/01/24 12:59:12;;;;;;;28.13;21.73;;;3.20;99.90;;;;;;4975277;28;20647;-53
2023/01/24 13:01:52;;;;;;;29.13;21.37;;;3.20;99.90;;;;;;4975212;28;20223;-52
2023/01/24 13:04:39;;;;;;;27.50;21.20;;;3.30;99.90;;;;;;4975465;28;20190;-53
2023/01/24 13:07:35;;;;;;;27.55;21.52;;;3.60;99.90;;;;;;4975280;28;20204;-52
2023/01/24 13:10:23;;;;;;;27.60;22.15;;;3.80;99.90;;;;;;4974686;28;20173;-54
2023/01/24 13:12:50;;;;;;;26.30;21.50;;;3.90;99.90;;;;;;4975050;28;20169;-54
2023/01/24 13:16:00;;;;;;;33.72;26.15;;;4.00;99.90;;;;;;4975085;28;20303;-52
2023/01/24 13:18:40;;;;;;;31.05;24.10;;;4.00;99.90;;;;;;4965997;28;20595;-54
2023/01/24 13:21:13;;;;;;;29.42;23.85;;;3.70;99.90;;;;;;4975108;28;20177;-51
2023/01/24 13:24:03;;;;;;;32.50;26.50;;;3.50;99.90;;;;;;4975281;28;20196;-52
2023/01/24 13:26:50;;;;;;;25.50;21.23;;;3.50;99.90;;;;;;4974888;28;20178;-51
2023/01/24 13:30:03;;;;;;;24.53;21.10;;;3.50;99.90;;;;;;4974932;28;20173;-54
2023/01/24 13:32:31;;;;;;;27.77;20.48;;;3.40;99.90;;;;;;4970925;28;20218;-54
2023/01/24 13:34:58;;;;;;;25.02;19.67;;;3.50;99.90;;;;;;4974667;28;20304;-53